Orbital elements of INMARSAT 3-F2
| Launched | 5 September 1996 |
| Flight ended | – |
| Launch site | Tyuratam Missile and Space Center, Kazakhstan (Also known as Baikonur Cosmodrome) |
| Owner | International Mobile Satellite Organization (INMARSAT) |
| NORAD ID | 24307 |
| Date fetched |
Epoch osculation |
Inc. [°] |
Ecc. | RA asc node [hr] |
Arg Peri. [°] |
Mean anom [°] |
Mean motion [rev/day] |
Abs. mag |
| Date fetched |
Epoch osculation |
Inc. [°] |
Ecc. | RA asc node [hr] |
Arg Peri. [°] |
Mean anom [°] |
Mean motion [rev/day] |
Abs. mag |
| 2026 May 09 17:57 | 2026 May 09 12:55:09 | 9.7723 | 0.00067 | 3.6218 | 356.1461 | 197.4480 | 1.00000 | – |
| 2026 May 08 17:57 | 2026 May 07 12:29:38 | 9.7677 | 0.00067 | 3.6231 | 354.3238 | 197.4480 | 1.00000 | – |
| 2026 May 07 17:58 | 2026 May 06 14:04:02 | 9.7655 | 0.00067 | 3.6237 | 353.5024 | 197.4480 | 1.00000 | – |
| 2026 May 06 17:57 | 2026 May 06 13:15:36 | 9.7655 | 0.00067 | 3.6237 | 353.4940 | 197.4480 | 1.00000 | – |
| 2026 May 05 17:57 | 2026 May 05 13:32:41 | 9.7632 | 0.00067 | 3.6244 | 352.6085 | 197.4480 | 1.00000 | – |
| 2026 May 04 17:57 | 2026 May 04 12:02:38 | 9.7607 | 0.00067 | 3.6251 | 351.8148 | 197.4480 | 1.00000 | – |
| 2026 May 03 17:57 | 2026 May 03 12:11:38 | 9.7584 | 0.00066 | 3.6257 | 351.0004 | 197.4480 | 1.00000 | – |
| 2026 May 02 17:57 | 2026 May 01 15:10:51 | 9.7541 | 0.00066 | 3.6270 | 349.5047 | 197.4480 | 1.00000 | – |
| 2026 May 01 17:56 | 2026 May 01 10:51:32 | 9.7537 | 0.00066 | 3.6271 | 349.4044 | 197.4480 | 1.00000 | – |
| 2026 Apr 30 17:56 | 2026 Apr 29 13:29:38 | 9.7493 | 0.00067 | 3.6283 | 347.7607 | 197.4480 | 1.00000 | – |
| 2026 Apr 29 17:57 | 2026 Apr 29 10:57:11 | 9.7490 | 0.00067 | 3.6284 | 347.6865 | 197.4480 | 1.00000 | – |
| 2026 Apr 28 17:56 | 2026 Apr 28 11:00:03 | 9.7467 | 0.00067 | 3.6290 | 346.9145 | 197.4480 | 1.00000 | – |
| 2026 Apr 27 17:58 | 2026 Apr 27 12:58:38 | 9.7446 | 0.00067 | 3.6296 | 346.1100 | 197.4480 | 1.00000 | – |
| 2026 Apr 26 17:58 | 2026 Apr 26 11:25:15 | 9.7422 | 0.00067 | 3.6303 | 345.1955 | 197.4480 | 1.00000 | – |
| 2026 Apr 25 17:58 | 2026 Apr 25 10:43:42 | 9.7398 | 0.00067 | 3.6310 | 344.5052 | 197.4480 | 1.00000 | – |
| 2026 Apr 24 17:59 | 2026 Apr 23 14:08:38 | 9.7357 | 0.00067 | 3.6323 | 342.8832 | 197.4480 | 1.00000 | – |
| 2026 Apr 23 17:57 | 2026 Apr 22 15:21:24 | 9.7336 | 0.00067 | 3.6329 | 341.9992 | 197.4480 | 1.00000 | – |
| 2026 Apr 22 17:57 | 2026 Apr 22 00:16:38 | 9.7321 | 0.00067 | 3.6333 | 341.4608 | 197.4480 | 1.00000 | – |
| 2026 Apr 21 17:57 | 2026 Apr 21 12:25:38 | 9.7311 | 0.00067 | 3.6336 | 341.0574 | 197.4480 | 1.00000 | – |
| 2026 Apr 20 17:57 | 2026 Apr 20 12:32:38 | 9.7289 | 0.00067 | 3.6343 | 340.1778 | 197.4480 | 1.00000 | – |
| 2026 Apr 19 17:58 | 2026 Apr 19 11:13:03 | 9.7265 | 0.00067 | 3.6350 | 339.4053 | 197.4480 | 1.00000 | – |
| 2026 Apr 18 17:56 | 2026 Apr 18 01:12:28 | 9.7234 | 0.00067 | 3.6360 | 337.4727 | 197.4480 | 1.00000 | – |
| 2026 Apr 16 17:57 | 2026 Apr 15 15:08:26 | 9.7180 | 0.00066 | 3.6376 | 334.9495 | 197.4480 | 1.00000 | – |
| 2026 Apr 14 17:57 | 2026 Apr 14 11:39:53 | 9.7154 | 0.00066 | 3.6383 | 333.6635 | 197.4480 | 1.00000 | – |
| 2026 Apr 13 17:57 | 2026 Apr 12 12:24:38 | 9.7109 | 0.00066 | 3.6396 | 331.6086 | 197.4480 | 1.00000 | – |
| 2026 Apr 12 17:57 | 2026 Apr 12 11:45:31 | 9.7108 | 0.00066 | 3.6396 | 331.5849 | 197.4480 | 1.00000 | – |